Jay Michael — WDD2051 — position and weather

sailwx.info

Track history (hours):
 
Tides and Currents Weather Stations Pressure Air Temp Water Temp Dewpoint Dewpoint Depression Visibility Wind Speed Wind Dir Waves Ship Positions

Jay Michael

Owner: Sterling Equipment Inc., Quincy, MA. More information available from US FCC via Universal Licensing System and Coast Guard Vessel Documentation Center.

Last reported at 2016-Aug-26 22:30 UTC. Time now 2016-Aug-26 23:24 UTC.
Position N 42°15' W 070°43'.

Length 21 m; draft 2.5 m.

Type: Tug. MMSI: 367110280.

Date/timePositionNaut miles runAvg speedWind from/ knotsBaromVisibWave heightAir tempDewpointWater temp
2016-Aug-26 22:30N 42°15' W 070°43'5 4.5
2016-Aug-26 21:30N 42°18' W 070°47'5 5.0
2016-Aug-26 20:33N 42°19' W 070°53'4 3.9
2016-Aug-26 19:33N 42°16' W 070°56'2 0.9
2016-Aug-26 17:27N 42°15' W 070°58'0 0.0
2016-Aug-26 04:29N 42°15' W 070°58'0 0.0
2016-Aug-26 03:32N 42°15' W 070°58'0 0.0
2016-Aug-26 02:33N 42°15' W 070°58'0 0.0
2016-Aug-26 01:20N 42°15' W 070°58'0 0.0
2016-Aug-25 19:33N 42°15' W 070°58'0 0.0
2016-Aug-25 18:06N 42°15' W 070°58'0 0.0
2016-Aug-25 15:31N 42°15' W 070°58'0 0.0
2016-Aug-25 14:33N 42°15' W 070°58'0 0.0
2016-Aug-25 13:25N 42°15' W 070°58'0 0.1
2016-Aug-25 12:33N 42°15' W 070°58'0 0.0
2016-Aug-24 21:32N 42°15' W 070°58'0 0.0
2016-Aug-24 17:21N 42°15' W 070°58'0 0.2
2016-Aug-24 15:33N 42°14' W 070°58'0 0.3
2016-Aug-24 14:24N 42°15' W 070°58'0 0.0
2016-Aug-24 13:21N 42°15' W 070°58'0 0.0
2016-Aug-24 12:33N 42°15' W 070°58'0 0.0
2016-Aug-23 23:30N 42°15' W 070°58'0 0.0
2016-Aug-23 22:32N 42°15' W 070°58'0 0.0
2016-Aug-23 20:16N 42°15' W 070°58'0 0.2
2016-Aug-23 18:33N 42°15' W 070°58'5 5.2
2016-Aug-23 17:33N 42°19' W 070°54'6 5.5
2016-Aug-23 16:33N 42°24' W 070°50'6 5.7
2016-Aug-23 15:33N 42°29' W 070°49'4 4.1
2016-Aug-23 14:33N 42°26' W 070°51'6 6.2
2016-Aug-23 13:33N 42°21' W 070°56'6 5.6
2016-Aug-23 12:33N 42°15' W 070°57'1 0.9
2016-Aug-23 11:30N 42°15' W 070°58'0 0.0
2016-Aug-23 10:28N 42°15' W 070°58'0 0.0
2016-Aug-23 08:31N 42°15' W 070°58'0 0.0
2016-Aug-23 06:20N 42°15' W 070°58'0 0.0
2016-Aug-23 05:30N 42°15' W 070°58'0 0.0
2016-Aug-23 03:31N 42°15' W 070°58'0 0.0
2016-Aug-23 02:30N 42°15' W 070°58'0 0.0
2016-Aug-23 01:33N 42°15' W 070°58'0 0.0
2016-Aug-23 00:31N 42°15' W 070°58'0 0.0
2016-Aug-22 23:33N 42°15' W 070°58'0 0.0
2016-Aug-22 22:32N 42°15' W 070°58'0 0.0
2016-Aug-22 21:33N 42°15' W 070°58'0 0.0
2016-Aug-22 19:29N 42°15' W 070°58'7 7.1
2016-Aug-22 18:33N 42°20' W 070°52'11 2.8
2016-Aug-22 14:33N 42°16' W 070°38'8 7.7
2016-Aug-22 13:34N 42°18' W 070°48'6 5.9
2016-Aug-22 12:33N 42°17' W 070°56'3 0.7
2016-Aug-22 08:31N 42°15' W 070°58'0 0.0
2016-Aug-21 20:32N 42°15' W 070°58'0 0.0
2016-Aug-21 19:33N 42°15' W 070°58'0 0.0
2016-Aug-21 18:32N 42°15' W 070°58'0 0.0
2016-Aug-21 17:25N 42°15' W 070°58'0 0.0
2016-Aug-21 16:33N 42°15' W 070°58'0 0.0
2016-Aug-21 14:15N 42°15' W 070°58'0 0.3
2016-Aug-21 13:33N 42°15' W 070°58'4 3.6
2016-Aug-21 12:33N 42°18' W 070°55'3 2.8
2016-Aug-21 11:33N 42°19' W 070°52'5 3.8
2016-Aug-21 10:15N 42°19' W 070°45'3 4.7
2016-Aug-21 09:33N 42°18' W 070°41'4 4.5
2016-Aug-21 08:33N 42°16' W 070°36'4 4.3
2016-Aug-21 07:33N 42°15' W 070°30'4 4.5
2016-Aug-21 06:33N 42°14' W 070°24'4 4.0
2016-Aug-21 05:33N 42°12' W 070°19'8 4.2
2016-Aug-21 03:33N 42°09' W 070°09'5 4.9
2016-Aug-21 02:32N 42°07' W 070°03'4 4.6
2016-Aug-21 01:33N 42°04' W 069°58'42 3.1
2016-Aug-20 12:09N 41°28' W 070°27'3 4.3
2016-Aug-20 11:33N 41°28' W 070°30'8 2.0
2016-Aug-20 07:34N 41°29' W 070°41'1 1.3
2016-Aug-20 06:33N 41°29' W 070°42'7 3.0
2016-Aug-20 04:03N 41°24' W 070°50'70 4.8
2016-Aug-19 13:32N 41°11' W 072°22'4 3.8
2016-Aug-19 12:33N 41°10' W 072°27'5 4.8
2016-Aug-19 11:33N 41°10' W 072°33'66 6.0
2016-Aug-19 00:31N 40°47' W 073°55'9 9.4
2016-Aug-18 23:33N 40°40' W 074°02'5 4.9
2016-Aug-18 22:32N 40°39' W 074°09'1 0.7
2016-Aug-18 21:33N 40°38' W 074°09'2 1.5
2016-Aug-18 20:17N 40°38' W 074°12'0 0.0
2016-Aug-18 19:07N 40°38' W 074°12'2 3.4
2016-Aug-18 18:33N 40°38' W 074°09'0 0.0
2016-Aug-18 17:33N 40°38' W 074°09'0 0.0
2016-Aug-18 16:33N 40°38' W 074°09'0 0.0
2016-Aug-18 15:33N 40°38' W 074°09'2 1.9
2016-Aug-18 14:33N 40°38' W 074°12'0 0.0
2016-Aug-18 13:33N 40°38' W 074°12'0 0.1
2016-Aug-18 12:32N 40°38' W 074°12'2 1.8
2016-Aug-18 11:33N 40°38' W 074°09'0 0.0
2016-Aug-18 10:33N 40°38' W 074°09'0 0.0
2016-Aug-18 09:33N 40°38' W 074°09'0 0.0
2016-Aug-18 08:33N 40°38' W 074°09'0 0.0
2016-Aug-18 07:34N 40°38' W 074°09'0 0.0
2016-Aug-18 06:33N 40°38' W 074°09'0 0.0
2016-Aug-18 05:34N 40°38' W 074°09'0 0.0
2016-Aug-18 04:33N 40°38' W 074°09'0 0.0
2016-Aug-18 03:33N 40°38' W 074°09'0 0.0
2016-Aug-18 02:33N 40°38' W 074°09'0 0.0
2016-Aug-18 01:33N 40°38' W 074°09'0 0.0
2016-Aug-18 00:33N 40°38' W 074°09'0 0.0
2016-Aug-17 23:33N 40°38' W 074°09'0 0.0
2016-Aug-17 22:33N 40°38' W 074°09'0 0.0
2016-Aug-17 21:33N 40°38' W 074°09'0 0.0
2016-Aug-17 20:32N 40°38' W 074°09'0 0.0
2016-Aug-17 19:33N 40°38' W 074°09'0 0.0
2016-Aug-17 18:33N 40°38' W 074°09'0 0.0
2016-Aug-17 17:33N 40°38' W 074°09'0 0.0
2016-Aug-17 16:33N 40°38' W 074°09'0 0.0
2016-Aug-17 15:33N 40°38' W 074°09'2 1.3
2016-Aug-17 14:07N 40°38' W 074°12'0 0.0
2016-Aug-17 13:32N 40°38' W 074°12'0 0.0
2016-Aug-17 12:27N 40°38' W 074°12'2 2.5
2016-Aug-17 11:30N 40°39' W 074°09'1 0.7
2016-Aug-17 10:33N 40°38' W 074°09'0 0.0
2016-Aug-17 09:33N 40°38' W 074°09'0 0.0
2016-Aug-17 08:33N 40°38' W 074°09'0 0.0
2016-Aug-17 07:34N 40°38' W 074°09'0 0.0
2016-Aug-17 06:33N 40°38' W 074°09'0 0.0
2016-Aug-17 05:34N 40°38' W 074°09'0 0.0
2016-Aug-17 04:33N 40°38' W 074°09'0 0.0
2016-Aug-17 03:34N 40°38' W 074°09'0 0.0
2016-Aug-17 02:33N 40°38' W 074°09'0 0.0
2016-Aug-17 01:34N 40°38' W 074°09'0 0.0
2016-Aug-17 00:34N 40°38' W 074°09'0 0.0
2016-Aug-16 23:34N 40°38' W 074°09'0 0.0
2016-Aug-16 22:33N 40°38' W 074°09'  
Track history (hours):
 
Tides and Currents Weather Stations Pressure Air Temp Water Temp Dewpoint Dewpoint Depression Visibility Wind Speed Wind Dir Waves Ship Positions

Jay Michael

Owner: Sterling Equipment Inc., Quincy, MA. More information available from US FCC via Universal Licensing System and Coast Guard Vessel Documentation Center.

Last reported at 2016-Aug-26 22:30 UTC. Time now 2016-Aug-26 23:24 UTC.
Position N 42°15' W 070°43'.

Length 21 m; draft 2.5 m.

Type: Tug. MMSI: 367110280.

Date/timePositionNaut miles runAvg speedWind from/ knotsBaromVisibWave heightAir tempDewpointWater temp
2016-Aug-26 22:30N 42°15' W 070°43'5 4.5
2016-Aug-26 21:30N 42°18' W 070°47'5 5.0
2016-Aug-26 20:33N 42°19' W 070°53'4 3.9
2016-Aug-26 19:33N 42°16' W 070°56'2 0.9
2016-Aug-26 17:27N 42°15' W 070°58'0 0.0
2016-Aug-26 04:29N 42°15' W 070°58'0 0.0
2016-Aug-26 03:32N 42°15' W 070°58'0 0.0
2016-Aug-26 02:33N 42°15' W 070°58'0 0.0
2016-Aug-26 01:20N 42°15' W 070°58'0 0.0
2016-Aug-25 19:33N 42°15' W 070°58'0 0.0
2016-Aug-25 18:06N 42°15' W 070°58'0 0.0
2016-Aug-25 15:31N 42°15' W 070°58'0 0.0
2016-Aug-25 14:33N 42°15' W 070°58'0 0.0
2016-Aug-25 13:25N 42°15' W 070°58'0 0.1
2016-Aug-25 12:33N 42°15' W 070°58'0 0.0
2016-Aug-24 21:32N 42°15' W 070°58'0 0.0
2016-Aug-24 17:21N 42°15' W 070°58'0 0.2
2016-Aug-24 15:33N 42°14' W 070°58'0 0.3
2016-Aug-24 14:24N 42°15' W 070°58'0 0.0
2016-Aug-24 13:21N 42°15' W 070°58'0 0.0
2016-Aug-24 12:33N 42°15' W 070°58'0 0.0
2016-Aug-23 23:30N 42°15' W 070°58'0 0.0
2016-Aug-23 22:32N 42°15' W 070°58'0 0.0
2016-Aug-23 20:16N 42°15' W 070°58'0 0.2
2016-Aug-23 18:33N 42°15' W 070°58'5 5.2
2016-Aug-23 17:33N 42°19' W 070°54'6 5.5
2016-Aug-23 16:33N 42°24' W 070°50'6 5.7
2016-Aug-23 15:33N 42°29' W 070°49'4 4.1
2016-Aug-23 14:33N 42°26' W 070°51'6 6.2
2016-Aug-23 13:33N 42°21' W 070°56'6 5.6
2016-Aug-23 12:33N 42°15' W 070°57'1 0.9
2016-Aug-23 11:30N 42°15' W 070°58'0 0.0
2016-Aug-23 10:28N 42°15' W 070°58'0 0.0
2016-Aug-23 08:31N 42°15' W 070°58'0 0.0
2016-Aug-23 06:20N 42°15' W 070°58'0 0.0
2016-Aug-23 05:30N 42°15' W 070°58'0 0.0
2016-Aug-23 03:31N 42°15' W 070°58'0 0.0
2016-Aug-23 02:30N 42°15' W 070°58'0 0.0
2016-Aug-23 01:33N 42°15' W 070°58'0 0.0
2016-Aug-23 00:31N 42°15' W 070°58'0 0.0
2016-Aug-22 23:33N 42°15' W 070°58'0 0.0
2016-Aug-22 22:32N 42°15' W 070°58'0 0.0
2016-Aug-22 21:33N 42°15' W 070°58'0 0.0
2016-Aug-22 19:29N 42°15' W 070°58'7 7.1
2016-Aug-22 18:33N 42°20' W 070°52'11 2.8
2016-Aug-22 14:33N 42°16' W 070°38'8 7.7
2016-Aug-22 13:34N 42°18' W 070°48'6 5.9
2016-Aug-22 12:33N 42°17' W 070°56'3 0.7
2016-Aug-22 08:31N 42°15' W 070°58'0 0.0
2016-Aug-21 20:32N 42°15' W 070°58'0 0.0
2016-Aug-21 19:33N 42°15' W 070°58'0 0.0
2016-Aug-21 18:32N 42°15' W 070°58'0 0.0
2016-Aug-21 17:25N 42°15' W 070°58'0 0.0
2016-Aug-21 16:33N 42°15' W 070°58'0 0.0
2016-Aug-21 14:15N 42°15' W 070°58'0 0.3
2016-Aug-21 13:33N 42°15' W 070°58'4 3.6
2016-Aug-21 12:33N 42°18' W 070°55'3 2.8
2016-Aug-21 11:33N 42°19' W 070°52'5 3.8
2016-Aug-21 10:15N 42°19' W 070°45'3 4.7
2016-Aug-21 09:33N 42°18' W 070°41'4 4.5
2016-Aug-21 08:33N 42°16' W 070°36'4 4.3
2016-Aug-21 07:33N 42°15' W 070°30'4 4.5
2016-Aug-21 06:33N 42°14' W 070°24'4 4.0
2016-Aug-21 05:33N 42°12' W 070°19'8 4.2
2016-Aug-21 03:33N 42°09' W 070°09'5 4.9
2016-Aug-21 02:32N 42°07' W 070°03'4 4.6
2016-Aug-21 01:33N 42°04' W 069°58'42 3.1
2016-Aug-20 12:09N 41°28' W 070°27'3 4.3
2016-Aug-20 11:33N 41°28' W 070°30'8 2.0
2016-Aug-20 07:34N 41°29' W 070°41'1 1.3
2016-Aug-20 06:33N 41°29' W 070°42'7 3.0
2016-Aug-20 04:03N 41°24' W 070°50'70 4.8
2016-Aug-19 13:32N 41°11' W 072°22'4 3.8
2016-Aug-19 12:33N 41°10' W 072°27'5 4.8
2016-Aug-19 11:33N 41°10' W 072°33'66 6.0
2016-Aug-19 00:31N 40°47' W 073°55'9 9.4
2016-Aug-18 23:33N 40°40' W 074°02'5 4.9
2016-Aug-18 22:32N 40°39' W 074°09'1 0.7
2016-Aug-18 21:33N 40°38' W 074°09'2 1.5
2016-Aug-18 20:17N 40°38' W 074°12'0 0.0
2016-Aug-18 19:07N 40°38' W 074°12'2 3.4
2016-Aug-18 18:33N 40°38' W 074°09'0 0.0
2016-Aug-18 17:33N 40°38' W 074°09'0 0.0
2016-Aug-18 16:33N 40°38' W 074°09'0 0.0
2016-Aug-18 15:33N 40°38' W 074°09'2 1.9
2016-Aug-18 14:33N 40°38' W 074°12'0 0.0
2016-Aug-18 13:33N 40°38' W 074°12'0 0.1
2016-Aug-18 12:32N 40°38' W 074°12'2 1.8
2016-Aug-18 11:33N 40°38' W 074°09'0 0.0
2016-Aug-18 10:33N 40°38' W 074°09'0 0.0
2016-Aug-18 09:33N 40°38' W 074°09'0 0.0
2016-Aug-18 08:33N 40°38' W 074°09'0 0.0
2016-Aug-18 07:34N 40°38' W 074°09'0 0.0
2016-Aug-18 06:33N 40°38' W 074°09'0 0.0
2016-Aug-18 05:34N 40°38' W 074°09'0 0.0
2016-Aug-18 04:33N 40°38' W 074°09'0 0.0
2016-Aug-18 03:33N 40°38' W 074°09'0 0.0
2016-Aug-18 02:33N 40°38' W 074°09'0 0.0
2016-Aug-18 01:33N 40°38' W 074°09'0 0.0
2016-Aug-18 00:33N 40°38' W 074°09'0 0.0
2016-Aug-17 23:33N 40°38' W 074°09'0 0.0
2016-Aug-17 22:33N 40°38' W 074°09'0 0.0
2016-Aug-17 21:33N 40°38' W 074°09'0 0.0
2016-Aug-17 20:32N 40°38' W 074°09'0 0.0
2016-Aug-17 19:33N 40°38' W 074°09'0 0.0
2016-Aug-17 18:33N 40°38' W 074°09'0 0.0
2016-Aug-17 17:33N 40°38' W 074°09'0 0.0
2016-Aug-17 16:33N 40°38' W 074°09'0 0.0
2016-Aug-17 15:33N 40°38' W 074°09'2 1.3
2016-Aug-17 14:07N 40°38' W 074°12'0 0.0
2016-Aug-17 13:32N 40°38' W 074°12'0 0.0
2016-Aug-17 12:27N 40°38' W 074°12'2 2.5
2016-Aug-17 11:30N 40°39' W 074°09'1 0.7
2016-Aug-17 10:33N 40°38' W 074°09'0 0.0
2016-Aug-17 09:33N 40°38' W 074°09'0 0.0
2016-Aug-17 08:33N 40°38' W 074°09'0 0.0
2016-Aug-17 07:34N 40°38' W 074°09'0 0.0
2016-Aug-17 06:33N 40°38' W 074°09'0 0.0
2016-Aug-17 05:34N 40°38' W 074°09'0 0.0
2016-Aug-17 04:33N 40°38' W 074°09'0 0.0
2016-Aug-17 03:34N 40°38' W 074°09'0 0.0
2016-Aug-17 02:33N 40°38' W 074°09'0 0.0
2016-Aug-17 01:34N 40°38' W 074°09'0 0.0
2016-Aug-17 00:34N 40°38' W 074°09'0 0.0
2016-Aug-16 23:34N 40°38' W 074°09'0 0.0
2016-Aug-16 22:33N 40°38' W 074°09'  

Dump ship's entire track history